Time;durP1;ratioP1;P1;durP2;ratioP2;P2;SDS_P1;SDS_P2;PMS_P1;PMS_P2;Temp;Humidity;BMP_temperature;BMP_pressure;BME280_temperature;BME280_humidity;BME280_pressure;Samples;Min_cycle;Max_cycle;Signal;HPM_P1;HPM_P2
2022/11/28 00:01:57;;;;;;;78.80;52.70;;;;;;;1.03;100.00;99773.48;105970;1289;58880;-74
2022/11/28 00:04:24;;;;;;;69.20;46.70;;;;;;;1.07;100.00;99771.13;105970;1292;58778;-75
2022/11/28 00:06:50;;;;;;;75.00;49.90;;;;;;;1.11;100.00;99768.26;105189;1290;1002936;-75
2022/11/28 00:09:18;;;;;;;78.00;52.90;;;;;;;1.16;100.00;99771.34;105934;1292;58875;-74
2022/11/28 00:11:46;;;;;;;80.20;52.90;;;;;;;1.18;100.00;99773.74;105960;1291;58841;-74
2022/11/28 00:14:12;;;;;;;69.00;46.80;;;;;;;1.22;100.00;99772.98;105919;1291;61625;-75
2022/11/28 00:16:38;;;;;;;73.60;51.80;;;;;;;1.24;100.00;99765.24;105942;1291;58991;-74
2022/11/28 00:19:06;;;;;;;78.20;53.00;;;;;;;1.26;100.00;99761.71;105201;1291;1002773;-75
2022/11/28 00:21:32;;;;;;;74.90;52.80;;;;;;;1.28;100.00;99759.92;105934;1291;65553;-74
2022/11/28 00:23:58;;;;;;;76.10;52.80;;;;;;;1.31;100.00;99764.09;105956;1291;58977;-75
2022/11/28 00:26:31;;;;;;;76.80;51.20;;;;;;;1.33;100.00;99767.54;105921;1297;58819;-75
2022/11/28 00:28:58;;;;;;;74.20;48.40;;;;;;;1.36;100.00;99767.14;105937;1290;64557;-75
2022/11/28 00:31:31;;;;;;;69.40;50.80;;;;;;;1.39;100.00;99769.73;105941;1289;68609;-75
2022/11/28 00:33:58;;;;;;;76.30;52.90;;;;;;;1.41;100.00;99766.00;105823;1283;71886;-76
2022/11/28 00:36:24;;;;;;;76.40;52.80;;;;;;;1.43;100.00;99765.80;105920;1298;58964;-76
2022/11/28 00:38:50;;;;;;;75.60;52.30;;;;;;;1.44;100.00;99765.77;105944;1291;58930;-76
2022/11/28 00:41:19;;;;;;;75.40;52.60;;;;;;;1.46;100.00;99761.35;105938;1291;58942;-76
2022/11/28 00:43:47;;;;;;;74.20;51.80;;;;;;;1.48;100.00;99760.10;105859;1284;60227;-75
2022/11/28 00:46:14;;;;;;;76.10;50.90;;;;;;;1.49;100.00;99758.85;105894;1291;73890;-75
2022/11/28 00:48:41;;;;;;;73.30;50.20;;;;;;;1.50;100.00;99756.92;105912;1290;58977;-76
2022/11/28 00:51:14;;;;;;;66.90;48.10;;;;;;;1.51;100.00;99754.61;105685;1292;58918;-74
2022/11/28 00:53:41;;;;;;;74.40;51.80;;;;;;;1.53;100.00;99750.56;105959;1289;67242;-73
2022/11/28 00:56:09;;;;;;;73.90;53.20;;;;;;;1.55;100.00;99745.80;105952;1291;61230;-74
2022/11/28 00:58:37;;;;;;;74.80;52.70;;;;;;;1.57;100.00;99742.27;105893;1291;72802;-74
2022/11/28 01:01:09;;;;;;;73.60;51.10;;;;;;;1.58;100.00;99735.24;105923;1282;59955;-74
2022/11/28 01:03:36;;;;;;;70.00;49.20;;;;;;;1.59;100.00;99736.64;105933;1290;60330;-75
2022/11/28 01:06:02;;;;;;;67.60;49.80;;;;;;;1.59;100.00;99733.65;105670;1290;58949;-76
2022/11/28 01:08:28;;;;;;;61.50;44.50;;;;;;;1.59;100.00;99727.69;105900;1290;61159;-74
2022/11/28 01:10:55;;;;;;;64.50;43.30;;;;;;;1.58;100.00;99726.48;105902;1291;58910;-75
2022/11/28 01:13:20;;;;;;;63.50;43.90;;;;;;;1.59;100.00;99724.17;105972;1290;58969;-73
2022/11/28 01:15:46;;;;;;;67.20;45.80;;;;;;;1.60;100.00;99721.35;105945;1291;59031;-74
2022/11/28 01:18:12;;;;;;;67.70;47.40;;;;;;;1.61;100.00;99717.85;105934;1291;59068;-73
2022/11/28 01:20:38;;;;;;;68.20;47.20;;;;;;;1.62;100.00;99713.80;105962;1283;58977;-73
2022/11/28 01:23:04;;;;;;;66.20;46.60;;;;;;;1.63;100.00;99706.60;105940;1295;58970;-72
2022/11/28 01:25:31;;;;;;;67.00;46.50;;;;;;;1.63;100.00;99700.98;105922;1287;59317;-74
2022/11/28 01:27:57;;;;;;;68.80;48.20;;;;;;;1.62;100.00;99692.77;105963;1289;59392;-74
2022/11/28 01:30:23;;;;;;;65.60;46.30;;;;;;;1.62;100.00;99684.38;105947;1283;58952;-74
2022/11/28 01:32:50;;;;;;;64.80;44.40;;;;;;;1.62;100.00;99684.20;105971;1283;58975;-74
2022/11/28 01:35:16;;;;;;;68.20;47.00;;;;;;;1.62;100.00;99685.79;105926;1282;58853;-73
2022/11/28 01:37:42;;;;;;;63.90;46.40;;;;;;;1.62;100.00;99691.22;105939;1292;58773;-74
2022/11/28 01:40:10;;;;;;;67.90;46.80;;;;;;;1.62;100.00;99689.80;105952;1292;58979;-73
2022/11/28 01:42:36;;;;;;;72.30;48.60;;;;;;;1.61;100.00;99685.46;105510;1295;69921;-74
2022/11/28 01:45:12;;;;;;;65.50;47.30;;;;;;;1.59;100.00;99672.87;105617;1294;72062;-73
2022/11/28 01:47:39;;;;;;;63.60;44.40;;;;;;;1.59;100.00;99674.63;105579;1295;59138;-74
2022/11/28 01:50:07;;;;;;;67.80;47.20;;;;;;;1.60;100.00;99667.77;105637;1293;58841;-74
2022/11/28 01:52:36;;;;;;;61.90;43.90;;;;;;;1.60;100.00;99668.65;105484;1294;66219;-74
2022/11/28 01:55:04;;;;;;;66.10;47.60;;;;;;;1.59;100.00;99666.58;105588;1300;69752;-75
2022/11/28 01:57:30;;;;;;;68.90;46.40;;;;;;;1.59;100.00;99666.41;105498;1294;71580;-74
2022/11/28 02:00:10;;;;;;;67.90;48.00;;;;;;;1.58;100.00;99662.04;105599;1293;58974;-75
2022/11/28 02:02:48;;;;;;;64.20;46.90;;;;;;;1.59;100.00;99663.77;105603;1303;59229;-74
2022/11/28 02:05:16;;;;;;;65.80;46.90;;;;;;;1.59;100.00;99658.69;105598;1292;66031;-75
2022/11/28 02:07:42;;;;;;;60.90;45.90;;;;;;;1.59;100.00;99651.85;105615;1293;60190;-74
2022/11/28 02:10:13;;;;;;;68.10;46.90;;;;;;;1.60;100.00;99647.28;105584;1296;59257;-74
2022/11/28 02:13:07;;;;;;;60.40;44.00;;;;;;;1.60;100.00;99646.05;105397;1299;59097;-74
2022/11/28 02:15:54;;;;;;;67.20;47.60;;;;;;;1.60;100.00;99644.31;105376;1287;59057;-74
2022/11/28 02:18:36;;;;;;;68.20;46.10;;;;;;;1.59;100.00;99642.05;105367;1300;64817;-74
2022/11/28 02:21:26;;;;;;;63.30;45.70;;;;;;;1.59;100.00;99638.20;105598;1298;61143;-73
2022/11/28 02:24:27;;;;;;;62.80;43.10;;;;;;;1.59;100.00;99637.85;105594;1299;65125;-74
2022/11/28 02:27:12;;;;;;;58.60;44.00;;;;;;;1.59;100.00;99632.95;105661;1292;59074;-74
2022/11/28 02:29:38;;;;;;;66.30;45.90;;;;;;;1.58;100.00;99637.52;105653;1293;59127;-74
2022/11/28 02:32:13;;;;;;;62.10;44.30;;;;;;;1.59;100.00;99638.90;105673;1295;66088;-74
2022/11/28 02:34:53;;;;;;;66.20;45.10;;;;;;;1.59;100.00;99634.69;105667;1296;68526;-73
2022/11/28 02:37:23;;;;;;;61.50;43.20;;;;;;;1.61;100.00;99636.07;105658;1302;72037;-74
2022/11/28 02:40:31;;;;;;;63.90;46.60;;;;;;;1.62;100.00;99631.15;105657;1300;58961;-74
2022/11/28 02:43:06;;;;;;;59.10;44.20;;;;;;;1.61;100.00;99629.93;105546;1298;59175;-74
2022/11/28 02:45:56;;;;;;;63.30;44.50;;;;;;;1.62;100.00;99623.26;105651;1297;67272;-74
2022/11/28 02:48:54;;;;;;;61.00;43.60;;;;;;;1.63;100.00;99621.48;105631;1300;60220;-74
2022/11/28 02:51:42;;;;;;;66.10;45.20;;;;;;;1.64;100.00;99620.23;105223;1301;73884;-74
2022/11/28 02:54:12;;;;;;;66.60;45.70;;;;;;;1.65;100.00;99617.75;105260;1299;59327;-73
2022/11/28 02:56:38;;;;;;;66.90;46.30;;;;;;;1.66;100.00;99613.89;105265;1299;58854;-74
2022/11/28 02:59:24;;;;;;;66.30;46.50;;;;;;;1.66;100.00;99610.90;105271;1299;58992;-75
2022/11/28 03:01:50;;;;;;;62.40;44.50;;;;;;;1.66;100.00;99610.73;105241;1301;59227;-74
2022/11/28 03:04:30;;;;;;;64.90;45.00;;;;;;;1.67;100.00;99606.67;105247;1293;58883;-74
2022/11/28 03:07:34;;;;;;;64.10;44.90;;;;;;;1.67;100.00;99602.31;105238;1301;59004;-74
2022/11/28 03:10:24;;;;;;;62.20;43.70;;;;;;;1.66;100.00;99599.69;105275;1301;59094;-75
2022/11/28 03:13:27;;;;;;;60.40;44.20;;;;;;;1.67;100.00;99597.76;105239;1301;65375;-74
2022/11/28 03:16:13;;;;;;;61.40;44.00;;;;;;;1.66;100.00;99596.54;105247;1302;60139;-75
2022/11/28 03:18:43;;;;;;;63.50;43.20;;;;;;;1.66;100.00;99596.02;104910;1303;65156;-75
2022/11/28 03:21:22;;;;;;;63.10;43.10;;;;;;;1.66;100.00;99592.16;105360;1298;58995;-75
2022/11/28 03:24:16;;;;;;;62.10;43.20;;;;;;;1.66;100.00;99591.98;105420;1304;58979;-75
2022/11/28 03:27:01;;;;;;;61.60;43.70;;;;;;;1.65;100.00;99593.92;105426;1296;64846;-74
2022/11/28 03:29:33;;;;;;;62.60;45.20;;;;;;;1.65;100.00;99598.65;105940;1290;61235;-75
2022/11/28 03:32:05;;;;;;;63.40;46.00;;;;;;;1.65;100.00;99594.81;105905;1296;72944;-74
2022/11/28 03:34:36;;;;;;;56.40;42.40;;;;;;;1.65;100.00;99593.23;105919;1289;59088;-75
2022/11/28 03:37:12;;;;;;;63.70;43.80;;;;;;;1.65;100.00;99588.85;105829;1292;58768;-74
2022/11/28 03:39:42;;;;;;;61.80;43.60;;;;;;;1.66;100.00;99588.30;105937;1292;64638;-75
2022/11/28 03:42:14;;;;;;;61.30;44.90;;;;;;;1.66;100.00;99589.19;105650;1291;61066;-75
2022/11/28 03:44:48;;;;;;;64.20;42.90;;;;;;;1.67;100.00;99589.33;105928;1284;64280;-75
2022/11/28 03:47:14;;;;;;;66.40;45.60;;;;;;;1.67;100.00;99587.40;105902;1282;59125;-75
2022/11/28 03:49:46;;;;;;;67.40;46.30;;;;;;;1.68;100.00;99588.61;105925;1287;58730;-74
2022/11/28 03:52:24;;;;;;;60.30;44.40;;;;;;;1.69;100.00;99584.56;105962;1288;66169;-74
2022/11/28 03:54:56;;;;;;;64.10;45.00;;;;;;;1.70;100.00;99579.13;105946;1291;59043;-75
2022/11/28 03:57:34;;;;;;;66.40;46.30;;;;;;;1.69;100.00;99579.49;105921;1291;73969;-74
2022/11/28 04:00:04;;;;;;;61.30;43.60;;;;;;;1.69;100.00;99576.69;105921;1287;59056;-74
2022/11/28 04:02:47;;;;;;;63.30;45.50;;;;;;;1.69;100.00;99577.91;105939;1298;58892;-74
2022/11/28 04:05:31;;;;;;;59.10;42.70;;;;;;;1.68;100.00;99574.59;105942;1296;64468;-73
2022/11/28 04:08:18;;;;;;;65.30;44.60;;;;;;;1.67;100.00;99574.98;105931;1289;69056;-73
2022/11/28 04:10:55;;;;;;;69.50;45.90;;;;;;;1.67;100.00;99574.80;105930;1290;64314;-73
2022/11/28 04:13:58;;;;;;;65.20;47.30;;;;;;;1.66;100.00;99573.95;105911;1290;58877;-72
2022/11/28 04:16:51;;;;;;;65.50;45.70;;;;;;;1.65;100.00;99576.23;105909;1290;58807;-73
2022/11/28 04:19:40;;;;;;;60.90;45.40;;;;;;;1.66;100.00;99574.30;105931;1291;64796;-74
2022/11/28 04:22:18;;;;;;;62.30;44.50;;;;;;;1.65;100.00;99575.36;105462;1303;61293;-74
2022/11/28 04:24:53;;;;;;;58.90;42.00;;;;;;;1.64;100.00;99573.63;105483;1297;64043;-74
2022/11/28 04:27:23;;;;;;;67.10;43.10;;;;;;;1.63;100.00;99568.77;105457;1296;59013;-74
2022/11/28 04:29:55;;;;;;;60.10;43.50;;;;;;;1.63;100.00;99566.30;105399;1296;59248;-73
2022/11/28 04:32:24;;;;;;;63.10;45.60;;;;;;;1.62;100.00;99563.17;105477;1303;76107;-74
2022/11/28 04:34:56;;;;;;;63.60;44.40;;;;;;;1.61;100.00;99561.81;105462;1303;61324;-74
2022/11/28 04:37:26;;;;;;;60.20;44.10;;;;;;;1.60;100.00;99560.59;105481;1296;65227;-73
2022/11/28 04:39:54;;;;;;;66.40;45.20;;;;;;;1.59;100.00;99560.27;105482;1288;59039;-75
2022/11/28 04:42:29;;;;;;;61.70;43.40;;;;;;;1.60;100.00;99561.13;105443;1301;61624;-75
2022/11/28 04:45:18;;;;;;;64.50;45.50;;;;;;;1.59;100.00;99559.21;105472;1298;67184;-74
2022/11/28 04:47:44;;;;;;;64.80;46.60;;;;;;;1.59;100.00;99564.46;105453;1297;68757;-75
2022/11/28 04:50:12;;;;;;;65.60;45.50;;;;;;;1.59;100.00;99564.64;105462;1293;58899;-74
2022/11/28 04:52:48;;;;;;;64.50;47.60;;;;;;;1.60;100.00;99566.38;105464;1297;58945;-75
2022/11/28 04:55:26;;;;;;;63.60;45.00;;;;;;;1.60;100.00;99566.00;105474;1302;60859;-74
2022/11/28 04:58:02;;;;;;;63.90;45.20;;;;;;;1.60;100.00;99562.34;105458;1297;67031;-75
2022/11/28 05:00:28;;;;;;;63.70;46.80;;;;;;;1.61;100.00;99563.55;105820;1291;67462;-74
2022/11/28 05:02:55;;;;;;;66.80;46.60;;;;;;;1.62;100.00;99561.95;105895;1287;58912;-75
2022/11/28 05:05:25;;;;;;;62.00;46.30;;;;;;;1.62;100.00;99567.19;105934;1298;58879;-74
2022/11/28 05:07:52;;;;;;;62.10;42.60;;;;;;;1.62;100.00;99569.48;105919;1293;58870;-75
2022/11/28 05:10:18;;;;;;;60.60;44.50;;;;;;;1.62;100.00;99570.17;105924;1290;65759;-75
2022/11/28 05:12:44;;;;;;;62.00;44.40;;;;;;;1.63;100.00;99575.39;105668;1293;59071;-75
2022/11/28 05:15:11;;;;;;;63.60;45.50;;;;;;;1.64;100.00;99574.70;105925;1285;58917;-75
2022/11/28 05:17:37;;;;;;;60.20;43.70;;;;;;;1.65;100.00;99573.79;105919;1296;58901;-74
2022/11/28 05:20:05;;;;;;;61.70;42.90;;;;;;;1.66;100.00;99574.83;105928;1291;59100;-74
2022/11/28 05:22:31;;;;;;;57.40;41.70;;;;;;;1.67;100.00;99576.55;105941;1291;67195;-74
2022/11/28 05:24:57;;;;;;;66.50;44.10;;;;;;;1.66;100.00;99576.05;105936;1290;59030;-74
2022/11/28 05:27:23;;;;;;;65.10;44.50;;;;;;;1.67;100.00;99574.97;105092;1293;1002914;-76
2022/11/28 05:29:49;;;;;;;64.90;44.70;;;;;;;1.67;100.00;99572.18;105891;1289;58884;-75
2022/11/28 05:32:18;;;;;;;66.40;45.60;;;;;;;1.68;100.00;99574.08;105916;1289;59070;-74
2022/11/28 05:34:43;;;;;;;64.00;45.00;;;;;;;1.69;100.00;99572.65;105926;1289;58949;-73
2022/11/28 05:37:09;;;;;;;63.10;47.50;;;;;;;1.70;100.00;99573.15;105929;1290;59374;-75
2022/11/28 05:39:35;;;;;;;62.70;46.60;;;;;;;1.71;100.00;99571.05;105903;1290;58852;-75
2022/11/28 05:42:01;;;;;;;63.10;48.30;;;;;;;1.72;100.00;99569.79;105931;1290;58921;-74
2022/11/28 05:44:27;;;;;;;64.60;45.80;;;;;;;1.71;100.00;99569.64;105941;1291;58898;-74
2022/11/28 05:46:54;;;;;;;63.70;47.10;;;;;;;1.72;100.00;99573.63;105946;1287;59154;-73
2022/11/28 05:49:20;;;;;;;58.30;44.00;;;;;;;1.73;100.00;99575.89;105946;1281;58943;-74
2022/11/28 05:51:47;;;;;;;62.00;45.80;;;;;;;1.73;100.00;99572.73;105195;1297;1002508;-73
2022/11/28 05:54:14;;;;;;;60.40;45.90;;;;;;;1.74;100.00;99576.05;105911;1290;58960;-74
2022/11/28 05:56:39;;;;;;;63.90;44.70;;;;;;;1.74;100.00;99573.95;105701;1294;59025;-74
2022/11/28 05:59:06;;;;;;;64.00;46.50;;;;;;;1.73;100.00;99569.58;105677;1294;59468;-74
2022/11/28 06:01:32;;;;;;;61.30;45.80;;;;;;;1.74;100.00;99569.23;105931;1284;58962;-74
2022/11/28 06:03:59;;;;;;;63.60;44.80;;;;;;;1.74;100.00;99566.42;105928;1289;58982;-73
2022/11/28 06:06:31;;;;;;;63.00;44.70;;;;;;;1.74;100.00;99566.41;105916;1290;58973;-74
2022/11/28 06:08:58;;;;;;;61.30;43.60;;;;;;;1.74;100.00;99562.04;105919;1286;58931;-74
2022/11/28 06:11:27;;;;;;;64.90;45.10;;;;;;;1.74;100.00;99556.09;105840;1290;66946;-74
2022/11/28 06:13:53;;;;;;;59.90;42.30;;;;;;;1.72;100.00;99549.46;105834;1290;68763;-74
2022/11/28 06:16:25;;;;;;;56.10;41.00;;;;;;;1.70;100.00;99550.05;105853;1284;59056;-74
2022/11/28 06:18:56;;;;;;;59.00;41.50;;;;;;;1.68;100.00;99553.59;105921;1283;58901;-74
2022/11/28 06:21:23;;;;;;;59.50;40.90;;;;;;;1.67;100.00;99555.02;105892;1290;61567;-75
2022/11/28 06:23:50;;;;;;;57.70;41.10;;;;;;;1.66;100.00;99561.52;105846;1292;67337;-75
2022/11/28 06:26:19;;;;;;;57.00;41.10;;;;;;;1.66;100.00;99569.04;105919;1291;61063;-75
2022/11/28 06:28:46;;;;;;;65.10;43.60;;;;;;;1.66;100.00;99566.77;105917;1291;65164;-75
2022/11/28 06:31:16;;;;;;;57.00;41.60;;;;;;;1.66;100.00;99563.08;105704;1293;58787;-75
2022/11/28 06:33:42;;;;;;;52.10;39.80;;;;;;;1.68;100.00;99564.43;105935;1291;59061;-75
2022/11/28 06:36:11;;;;;;;55.10;43.20;;;;;;;1.69;100.00;99568.79;105790;1292;59262;-76
2022/11/28 06:38:37;;;;;;;61.40;44.60;;;;;;;1.71;100.00;99568.05;105911;1291;60178;-74
2022/11/28 06:41:07;;;;;;;60.50;43.90;;;;;;;1.74;100.00;99567.48;105906;1283;65072;-75
2022/11/28 06:43:34;;;;;;;52.90;39.70;;;;;;;1.77;100.00;99565.84;104373;1290;1002368;-74
2022/11/28 06:46:00;;;;;;;53.30;39.50;;;;;;;1.78;100.00;99569.67;105942;1290;58776;-75
2022/11/28 06:48:26;;;;;;;58.20;41.30;;;;;;;1.79;100.00;99571.92;105923;1285;58933;-75
2022/11/28 06:50:52;;;;;;;60.00;42.40;;;;;;;1.81;100.00;99571.16;105912;1290;58874;-75
2022/11/28 06:53:18;;;;;;;56.50;42.70;;;;;;;1.83;100.00;99573.40;105908;1290;59042;-75
2022/11/28 06:55:45;;;;;;;70.40;53.60;;;;;;;1.86;100.00;99573.67;105936;1283;58944;-75
2022/11/28 06:58:12;;;;;;;56.80;42.10;;;;;;;1.89;100.00;99574.48;105905;1290;59251;-75
2022/11/28 07:00:38;;;;;;;60.40;42.90;;;;;;;1.90;100.00;99573.78;105919;1291;58938;-75
2022/11/28 07:03:05;;;;;;;61.70;45.30;;;;;;;1.92;100.00;99568.84;105972;1291;59016;-75
2022/11/28 07:05:31;;;;;;;58.80;43.10;;;;;;;1.94;100.00;99571.23;105919;1291;59210;-75
2022/11/28 07:07:57;;;;;;;58.20;43.20;;;;;;;1.96;100.00;99571.53;105945;1275;58847;-75
2022/11/28 07:10:24;;;;;;;61.70;45.90;;;;;;;1.98;100.00;99571.84;105898;1290;59066;-75
2022/11/28 07:12:54;;;;;;;62.50;43.40;;;;;;;2.01;100.00;99566.70;105922;1281;58969;-74
2022/11/28 07:15:21;;;;;;;;;;;;;;;2.03;100.00;99567.88;105183;1291;1002981;-75
2022/11/28 07:17:46;;;;;;;57.60;41.10;;;;;;;2.04;100.00;99566.62;105924;1291;58869;-75
2022/11/28 07:20:13;;;;;;;55.70;39.90;;;;;;;2.06;100.00;99565.16;105927;1291;58974;-75
2022/11/28 07:22:39;;;;;;;52.90;37.40;;;;;;;2.09;100.00;99564.58;105656;1293;58890;-75
2022/11/28 07:25:05;;;;;;;54.80;39.30;;;;;;;2.10;100.00;99561.05;105943;1282;59054;-75
2022/11/28 07:27:31;;;;;;;54.10;40.20;;;;;;;2.11;100.00;99562.26;105654;1292;59072;-75
2022/11/28 07:29:57;;;;;;;55.30;39.00;;;;;;;2.12;100.00;99560.13;105930;1291;69086;-74
2022/11/28 07:32:24;;;;;;;50.70;39.10;;;;;;;2.15;100.00;99560.58;105932;1290;59021;-75
2022/11/28 07:34:50;;;;;;;54.90;39.60;;;;;;;2.18;100.00;99560.50;105948;1283;58986;-75
2022/11/28 07:37:17;;;;;;;48.00;38.50;;;;;;;2.21;100.00;99561.30;105915;1283;59164;-74
2022/11/28 07:39:43;;;;;;;50.90;38.10;;;;;;;2.24;100.00;99557.91;105925;1283;58933;-75
2022/11/28 07:42:10;;;;;;;49.30;37.00;;;;;;;2.29;100.00;99556.40;105905;1282;58897;-74
2022/11/28 07:44:36;;;;;;;55.50;40.10;;;;;;;2.32;100.00;99553.68;105945;1289;58900;-75
2022/11/28 07:47:03;;;;;;;50.70;37.30;;;;;;;2.34;100.00;99549.95;105913;1284;58983;-75
2022/11/28 07:49:29;;;;;;;51.20;37.00;;;;;;;2.37;100.00;99547.41;105935;1291;58898;-75
2022/11/28 07:51:55;;;;;;;49.60;38.60;;;;;;;2.40;100.00;99545.96;105884;1290;59023;-74
2022/11/28 07:54:22;;;;;;;53.40;37.80;;;;;;;2.44;100.00;99546.73;106005;1287;58975;-74
2022/11/28 07:56:48;;;;;;;49.40;36.30;;;;;;;2.48;100.00;99539.27;105848;1278;59929;-74
2022/11/28 07:59:15;;;;;;;49.70;38.50;;;;;;;2.51;100.00;99541.27;106010;1287;58948;-73
2022/11/28 08:01:41;;;;;;;52.40;35.90;;;;;;;2.56;100.00;99536.97;106053;1288;58905;-74
2022/11/28 08:04:09;;;;;;;50.10;37.10;;;;;;;2.59;100.00;99537.41;106050;1292;59180;-74
2022/11/28 08:06:39;;;;;;;49.10;37.50;;;;;;;2.62;100.00;99532.76;106034;1288;59013;-73
2022/11/28 08:09:06;;;;;;;48.60;35.00;;;;;;;2.65;100.00;99531.80;106082;1288;58859;-74
2022/11/28 08:11:33;;;;;;;49.20;37.70;;;;;;;2.69;100.00;99527.70;106062;1289;75813;-74
2022/11/28 08:13:59;;;;;;;50.90;35.50;;;;;;;2.72;100.00;99524.79;105341;1282;1002099;-75
2022/11/28 08:16:27;;;;;;;50.70;36.00;;;;;;;2.75;100.00;99517.68;106062;1281;58997;-75
2022/11/28 08:18:54;;;;;;;51.10;36.30;;;;;;;2.77;100.00;99521.30;106071;1281;58955;-74
2022/11/28 08:21:23;;;;;;;53.90;39.90;;;;;;;2.82;100.00;99521.36;105757;1294;60302;-74
2022/11/28 08:23:50;;;;;;;52.80;38.70;;;;;;;2.86;100.00;99519.50;106070;1283;65839;-73
2022/11/28 08:26:19;;;;;;;51.20;37.20;;;;;;;2.88;100.00;99518.21;106068;1281;59859;-74
2022/11/28 08:28:45;;;;;;;49.90;39.30;;;;;;;2.89;100.00;99523.09;106048;1281;65341;-74
2022/11/28 08:31:17;;;;;;;57.90;41.10;;;;;;;2.90;100.00;99523.77;106029;1288;59891;-74
2022/11/28 08:33:44;;;;;;;54.70;40.50;;;;;;;2.92;100.00;99525.13;106087;1288;58776;-75
2022/11/28 08:36:13;;;;;;;52.70;39.20;;;;;;;2.95;100.00;99522.08;105667;1294;74847;-74
2022/11/28 08:38:42;;;;;;;48.70;37.50;;;;;;;2.99;100.00;99522.30;106081;1281;58855;-74
2022/11/28 08:41:13;;;;;;;50.50;37.50;;;;;;;3.04;100.00;99521.10;106087;1289;63197;-74
2022/11/28 08:43:40;;;;;;;46.80;37.30;;;;;;;3.09;100.00;99522.73;106058;1289;58888;-75
2022/11/28 08:46:10;;;;;;;46.70;36.10;;;;;;;3.13;100.00;99525.60;106069;1282;58798;-74
2022/11/28 08:48:37;;;;;;;;;;;;;;;3.18;100.00;99524.77;106098;1288;64603;-74
2022/11/28 08:51:03;;;;;;;47.40;35.20;;;;;;;3.21;100.00;99524.85;105770;1287;59724;-74
2022/11/28 08:53:29;;;;;;;43.20;33.70;;;;;;;3.25;100.00;99522.26;105996;1289;64093;-74
2022/11/28 08:55:55;;;;;;;42.70;34.70;;;;;;;3.29;100.00;99524.24;106056;1282;58932;-74
2022/11/28 08:58:21;;;;;;;39.20;34.20;;;;;;;3.34;100.00;99527.10;106046;1284;58963;-75
2022/11/28 09:00:47;;;;;;;46.10;36.00;;;;;;;3.37;100.00;99528.42;106049;1281;59260;-74
2022/11/28 09:03:17;;;;;;;43.70;35.30;;;;;;;3.42;100.00;99529.17;106060;1285;59366;-74
2022/11/28 09:05:45;;;;;;;46.40;34.70;;;;;;;3.46;100.00;99530.63;105895;1289;63834;-74
2022/11/28 09:08:20;;;;;;;43.50;34.80;;;;;;;3.52;100.00;99527.12;106025;1288;58920;-75
2022/11/28 09:10:46;;;;;;;42.50;31.20;;;;;;;3.53;100.00;99525.32;105893;1291;58775;-75
2022/11/28 09:13:14;;;;;;;44.80;34.00;;;;;;;3.54;100.00;99525.65;106055;1275;58950;-75
2022/11/28 09:15:44;;;;;;;46.60;35.10;;;;;;;3.58;100.00;99525.17;106040;1282;59952;-75
2022/11/28 09:18:13;;;;;;;43.70;34.40;;;;;;;3.61;100.00;99523.33;106062;1289;64252;-74
2022/11/28 09:20:40;;;;;;;46.90;35.80;;;;;;;3.61;100.00;99522.09;106073;1289;58835;-75
2022/11/28 09:23:07;;;;;;;42.60;32.80;;;;;;;3.62;100.00;99519.27;105909;1291;58891;-76
2022/11/28 09:25:37;;;;;;;42.40;33.50;;;;;;;3.64;100.00;99518.15;106071;1289;65998;-74
2022/11/28 09:28:04;;;;;;;41.80;32.30;;;;;;;3.65;100.00;99518.30;106053;1289;59230;-75
2022/11/28 09:30:29;;;;;;;43.20;31.80;;;;;;;3.65;100.00;99517.40;106041;1296;64141;-75
2022/11/28 09:32:56;;;;;;;49.70;35.30;;;;;;;3.66;100.00;99513.33;105722;1286;58968;-75
2022/11/28 09:35:22;;;;;;;45.30;36.10;;;;;;;3.74;100.00;99506.94;106070;1281;59036;-74
2022/11/28 09:37:48;;;;;;;44.10;33.30;;;;;;;3.81;100.00;99506.89;106079;1281;58866;-74
2022/11/28 09:40:30;;;;;;;47.00;34.60;;;;;;;3.85;100.00;99502.92;106065;1275;59087;-74
2022/11/28 09:42:59;;;;;;;42.90;32.40;;;;;;;3.88;100.00;99500.00;106037;1291;64410;-74
2022/11/28 09:45:26;;;;;;;45.60;33.60;;;;;;;3.96;100.00;99499.39;105707;1294;59962;-74
2022/11/28 09:47:57;;;;;;;42.30;32.60;;;;;;;4.04;100.00;99497.92;106063;1281;58700;-75
2022/11/28 09:50:28;;;;;;;39.70;31.30;;;;;;;4.12;100.00;99490.61;106076;1288;65974;-74
2022/11/28 09:52:57;;;;;;;40.20;31.30;;;;;;;4.21;100.00;99489.95;106064;1289;58999;-74
2022/11/28 09:55:36;;;;;;;44.80;31.00;;;;;;;4.29;100.00;99483.20;106059;1288;63944;-74
2022/11/28 09:58:14;;;;;;;41.50;30.60;;;;;;;4.37;100.00;99472.89;106054;1289;58815;-74
2022/11/28 10:00:50;;;;;;;39.80;29.20;;;;;;;4.47;100.00;99468.70;106066;1288;58955;-74
2022/11/28 10:03:24;;;;;;;39.40;30.80;;;;;;;4.60;100.00;99465.26;106083;1282;66020;-74
2022/11/28 10:06:05;;;;;;;39.30;30.60;;;;;;;4.81;100.00;99461.88;106055;1288;58926;-74
2022/11/28 10:08:48;;;;;;;38.80;30.30;;;;;;;5.06;100.00;99453.20;106040;1281;64007;-75
2022/11/28 10:11:24;;;;;;;37.80;31.00;;;;;;;5.23;100.00;99448.50;106045;1281;58923;-75
2022/11/28 10:14:05;;;;;;;36.00;28.80;;;;;;;5.31;100.00;99446.45;106080;1289;58744;-74
2022/11/28 10:16:36;;;;;;;35.00;27.30;;;;;;;5.35;100.00;99439.98;106063;1288;66083;-74
2022/11/28 10:19:08;;;;;;;37.40;30.00;;;;;;;5.41;100.00;99439.35;106077;1275;58915;-74
2022/11/28 10:21:46;;;;;;;35.20;27.30;;;;;;;5.50;100.00;99436.03;106062;1288;62686;-74
2022/11/28 10:24:17;;;;;;;33.20;27.20;;;;;;;5.63;100.00;99429.87;106020;1281;59239;-75
2022/11/28 10:26:50;;;;;;;33.20;26.80;;;;;;;5.73;100.00;99429.27;106069;1281;59295;-74
2022/11/28 10:29:37;;;;;;;34.70;27.40;;;;;;;5.80;100.00;99425.30;106065;1288;66020;-75
2022/11/28 10:32:04;;;;;;;33.30;27.30;;;;;;;5.83;100.00;99420.58;106070;1273;59791;-74
2022/11/28 10:34:56;;;;;;;32.40;26.20;;;;;;;5.81;100.00;99415.91;106054;1288;64151;-74
2022/11/28 10:37:29;;;;;;;45.90;28.50;;;;;;;5.78;100.00;99413.42;106087;1287;59291;-74
2022/11/28 10:40:01;;;;;;;36.20;28.10;;;;;;;5.76;100.00;99412.61;106064;1282;58770;-75
2022/11/28 10:42:39;;;;;;;37.50;27.20;;;;;;;5.71;100.00;99414.41;106082;1281;66133;-74
2022/11/28 10:45:11;;;;;;;33.70;27.40;;;;;;;5.59;100.00;99408.90;105807;1289;58947;-74
2022/11/28 10:48:09;;;;;;;32.90;25.40;;;;;;;5.51;100.00;99405.85;105916;1274;188096;-74
2022/11/28 10:50:47;;;;;;;35.30;27.60;;;;;;;5.50;100.00;99405.20;105696;1297;59237;-75
2022/11/28 10:53:29;;;;;;;38.90;28.10;;;;;;;5.48;100.00;99400.66;106073;1281;58947;-75
2022/11/28 10:56:20;;;;;;;36.70;28.20;;;;;;;5.60;100.00;99399.47;106064;1281;64832;-75
2022/11/28 10:58:45;;;;;;;;;;;;;;;5.85;100.00;99394.75;106083;1288;59260;-76
2022/11/28 11:01:11;;;;;;;35.30;27.80;;;;;;;6.00;100.00;99392.95;106066;1281;59035;-75
2022/11/28 11:03:39;;;;;;;34.40;26.10;;;;;;;6.18;100.00;99389.58;106073;1282;58847;-75
2022/11/28 11:06:06;;;;;;;32.60;24.50;;;;;;;6.35;100.00;99389.88;106064;1288;58962;-74
2022/11/28 11:08:40;;;;;;;32.90;25.90;;;;;;;6.43;100.00;99384.27;106043;1288;64609;-74
2022/11/28 11:11:19;;;;;;;30.90;25.00;;;;;;;6.48;100.00;99384.88;106059;1289;59207;-74
2022/11/28 11:13:58;;;;;;;31.60;24.80;;;;;;;6.56;100.00;99381.04;106052;1288;64090;-75
2022/11/28 11:16:23;;;;;;;29.40;25.30;;;;;;;6.58;100.00;99380.20;106053;1288;59298;-75
2022/11/28 11:18:54;;;;;;;36.60;26.60;;;;;;;6.66;100.00;99376.70;106087;1287;58926;-75
2022/11/28 11:21:23;;;;;;;28.20;23.30;;;;;;;6.74;100.00;99377.94;106068;1288;65038;-74
2022/11/28 11:24:10;;;;;;;30.00;23.90;;;;;;;6.80;100.00;99375.36;106088;1281;59763;-73
2022/11/28 11:26:42;;;;;;;28.60;24.30;;;;;;;6.80;100.00;99373.20;106054;1288;64118;-74
2022/11/28 11:29:34;;;;;;;31.00;24.40;;;;;;;6.71;100.00;99374.19;106041;1289;58845;-74